sensor_id;sensor_type;location;lat;lon;timestamp;temperature;humidity
8736;DHT22;4404;49.308;12.178;2022-10-16T00:01:55;15.70;99.90
8736;DHT22;4404;49.308;12.178;2022-10-16T00:07:59;15.70;99.90
8736;DHT22;4404;49.308;12.178;2022-10-16T00:14:07;15.70;99.90
8736;DHT22;4404;49.308;12.178;2022-10-16T00:20:11;15.60;99.90
8736;DHT22;4404;49.308;12.178;2022-10-16T00:26:16;15.50;99.90
8736;DHT22;4404;49.308;12.178;2022-10-16T00:32:19;15.50;99.90
8736;DHT22;4404;49.308;12.178;2022-10-16T00:38:21;15.50;99.90
8736;DHT22;4404;49.308;12.178;2022-10-16T00:44:46;15.40;99.90
8736;DHT22;4404;49.308;12.178;2022-10-16T00:50:53;15.50;99.90
8736;DHT22;4404;49.308;12.178;2022-10-16T00:56:58;15.50;99.90
8736;DHT22;4404;49.308;12.178;2022-10-16T01:09:31;15.60;99.90
8736;DHT22;4404;49.308;12.178;2022-10-16T01:15:45;15.50;99.90
8736;DHT22;4404;49.308;12.178;2022-10-16T01:21:52;15.50;99.90
8736;DHT22;4404;49.308;12.178;2022-10-16T01:27:57;15.50;99.90
8736;DHT22;4404;49.308;12.178;2022-10-16T01:34:04;15.50;99.90
8736;DHT22;4404;49.308;12.178;2022-10-16T01:40:13;15.50;99.90
8736;DHT22;4404;49.308;12.178;2022-10-16T01:46:20;15.50;99.90
8736;DHT22;4404;49.308;12.178;2022-10-16T01:52:25;15.50;99.90
8736;DHT22;4404;49.308;12.178;2022-10-16T01:58:30;15.50;99.90
8736;DHT22;4404;49.308;12.178;2022-10-16T02:04:39;15.50;99.90
8736;DHT22;4404;49.308;12.178;2022-10-16T02:10:44;15.50;99.90
8736;DHT22;4404;49.308;12.178;2022-10-16T02:16:46;15.50;99.90
8736;DHT22;4404;49.308;12.178;2022-10-16T02:22:50;15.50;99.90
8736;DHT22;4404;49.308;12.178;2022-10-16T02:28:57;15.50;99.90
8736;DHT22;4404;49.308;12.178;2022-10-16T02:35:03;15.50;99.90
8736;DHT22;4404;49.308;12.178;2022-10-16T02:41:08;15.40;99.90
8736;DHT22;4404;49.308;12.178;2022-10-16T02:47:10;15.40;99.90
8736;DHT22;4404;49.308;12.178;2022-10-16T02:53:13;15.50;99.90
8736;DHT22;4404;49.308;12.178;2022-10-16T02:59:16;15.40;99.90
8736;DHT22;4404;49.308;12.178;2022-10-16T03:05:19;15.40;99.90
8736;DHT22;4404;49.308;12.178;2022-10-16T03:11:21;15.40;99.90
8736;DHT22;4404;49.308;12.178;2022-10-16T03:17:26;15.50;99.90
8736;DHT22;4404;49.308;12.178;2022-10-16T03:23:28;15.50;99.90
8736;DHT22;4404;49.308;12.178;2022-10-16T03:29:30;15.50;99.90
8736;DHT22;4404;49.308;12.178;2022-10-16T03:35:34;15.50;99.90
8736;DHT22;4404;49.308;12.178;2022-10-16T03:41:37;15.50;99.90
8736;DHT22;4404;49.308;12.178;2022-10-16T03:47:39;15.40;99.90
8736;DHT22;4404;49.308;12.178;2022-10-16T03:53:44;15.40;99.90
8736;DHT22;4404;49.308;12.178;2022-10-16T03:59:46;15.50;99.90
8736;DHT22;4404;49.308;12.178;2022-10-16T04:05:48;15.40;99.90
8736;DHT22;4404;49.308;12.178;2022-10-16T04:11:52;15.40;99.90
8736;DHT22;4404;49.308;12.178;2022-10-16T04:17:55;15.40;99.90
8736;DHT22;4404;49.308;12.178;2022-10-16T04:23:57;15.40;99.90
8736;DHT22;4404;49.308;12.178;2022-10-16T04:30:01;15.40;99.90
8736;DHT22;4404;49.308;12.178;2022-10-16T04:36:04;15.40;99.90
8736;DHT22;4404;49.308;12.178;2022-10-16T04:42:07;15.40;99.90
8736;DHT22;4404;49.308;12.178;2022-10-16T04:48:12;15.30;99.90
8736;DHT22;4404;49.308;12.178;2022-10-16T04:54:14;15.20;99.90
8736;DHT22;4404;49.308;12.178;2022-10-16T05:00:16;15.20;99.90
8736;DHT22;4404;49.308;12.178;2022-10-16T05:06:20;15.20;99.90
8736;DHT22;4404;49.308;12.178;2022-10-16T05:12:23;15.20;99.90
8736;DHT22;4404;49.308;12.178;2022-10-16T05:18:25;15.30;99.90
8736;DHT22;4404;49.308;12.178;2022-10-16T05:24:29;15.20;99.90
8736;DHT22;4404;49.308;12.178;2022-10-16T05:30:32;15.20;99.90
8736;DHT22;4404;49.308;12.178;2022-10-16T05:36:35;15.20;99.90
8736;DHT22;4404;49.308;12.178;2022-10-16T05:42:39;15.20;99.90
8736;DHT22;4404;49.308;12.178;2022-10-16T05:48:41;15.10;99.90
8736;DHT22;4404;49.308;12.178;2022-10-16T05:54:46;15.10;99.90
8736;DHT22;4404;49.308;12.178;2022-10-16T06:00:57;15.20;99.90
8736;DHT22;4404;49.308;12.178;2022-10-16T06:07:01;15.20;99.90
8736;DHT22;4404;49.308;12.178;2022-10-16T06:13:03;15.20;99.90
8736;DHT22;4404;49.308;12.178;2022-10-16T06:19:22;15.20;99.90
8736;DHT22;4404;49.308;12.178;2022-10-16T06:25:24;15.20;99.90
8736;DHT22;4404;49.308;12.178;2022-10-16T06:31:28;15.20;99.90
8736;DHT22;4404;49.308;12.178;2022-10-16T06:37:32;15.20;99.90
8736;DHT22;4404;49.308;12.178;2022-10-16T06:43:35;15.20;99.90
8736;DHT22;4404;49.308;12.178;2022-10-16T06:49:38;15.20;99.90
8736;DHT22;4404;49.308;12.178;2022-10-16T06:55:42;15.20;99.90
8736;DHT22;4404;49.308;12.178;2022-10-16T07:01:45;15.20;99.90
8736;DHT22;4404;49.308;12.178;2022-10-16T07:07:47;15.20;99.90
8736;DHT22;4404;49.308;12.178;2022-10-16T07:13:51;15.20;99.90
8736;DHT22;4404;49.308;12.178;2022-10-16T07:19:54;15.20;99.90
8736;DHT22;4404;49.308;12.178;2022-10-16T07:25:57;15.30;99.90
8736;DHT22;4404;49.308;12.178;2022-10-16T07:32:02;15.30;99.90
8736;DHT22;4404;49.308;12.178;2022-10-16T07:38:04;15.30;99.90
8736;DHT22;4404;49.308;12.178;2022-10-16T07:44:07;15.20;99.90
8736;DHT22;4404;49.308;12.178;2022-10-16T07:50:11;15.30;99.90
8736;DHT22;4404;49.308;12.178;2022-10-16T07:56:14;15.20;99.90
8736;DHT22;4404;49.308;12.178;2022-10-16T08:02:17;15.30;99.90
8736;DHT22;4404;49.308;12.178;2022-10-16T08:08:21;15.30;99.90
8736;DHT22;4404;49.308;12.178;2022-10-16T08:14:23;15.50;99.90
8736;DHT22;4404;49.308;12.178;2022-10-16T08:20:26;15.60;99.90
8736;DHT22;4404;49.308;12.178;2022-10-16T08:26:31;15.70;99.90
8736;DHT22;4404;49.308;12.178;2022-10-16T08:32:33;15.70;99.90
8736;DHT22;4404;49.308;12.178;2022-10-16T08:38:36;15.80;99.90
8736;DHT22;4404;49.308;12.178;2022-10-16T08:45:00;16.00;99.90
8736;DHT22;4404;49.308;12.178;2022-10-16T08:51:10;16.10;99.90
8736;DHT22;4404;49.308;12.178;2022-10-16T08:57:17;16.20;99.90
8736;DHT22;4404;49.308;12.178;2022-10-16T09:03:39;16.50;99.90
8736;DHT22;4404;49.308;12.178;2022-10-16T09:10:04;16.70;99.90
8736;DHT22;4404;49.308;12.178;2022-10-16T09:16:18;16.80;99.90
8736;DHT22;4404;49.308;12.178;2022-10-16T09:22:27;17.10;99.90
8736;DHT22;4404;49.308;12.178;2022-10-16T09:28:30;17.40;99.90
8736;DHT22;4404;49.308;12.178;2022-10-16T09:34:34;17.70;99.90
8736;DHT22;4404;49.308;12.178;2022-10-16T09:40:42;18.00;99.90
8736;DHT22;4404;49.308;12.178;2022-10-16T09:46:45;18.30;99.90
8736;DHT22;4404;49.308;12.178;2022-10-16T09:52:47;18.40;99.90
8736;DHT22;4404;49.308;12.178;2022-10-16T09:58:52;18.40;99.90
8736;DHT22;4404;49.308;12.178;2022-10-16T10:04:56;18.40;99.90
8736;DHT22;4404;49.308;12.178;2022-10-16T10:10:58;18.40;99.90
8736;DHT22;4404;49.308;12.178;2022-10-16T10:17:13;18.40;99.90
8736;DHT22;4404;49.308;12.178;2022-10-16T10:23:21;18.40;99.90
8736;DHT22;4404;49.308;12.178;2022-10-16T10:29:35;18.40;99.90
8736;DHT22;4404;49.308;12.178;2022-10-16T10:35:56;18.50;99.90
8736;DHT22;4404;49.308;12.178;2022-10-16T10:42:17;18.50;99.90
8736;DHT22;4404;49.308;12.178;2022-10-16T10:48:50;18.50;99.90
8736;DHT22;4404;49.308;12.178;2022-10-16T10:55:08;18.70;99.90
8736;DHT22;4404;49.308;12.178;2022-10-16T11:01:16;18.80;99.90
8736;DHT22;4404;49.308;12.178;2022-10-16T11:07:24;19.00;99.90
8736;DHT22;4404;49.308;12.178;2022-10-16T11:13:33;19.10;99.90
8736;DHT22;4404;49.308;12.178;2022-10-16T11:19:41;19.10;99.90
8736;DHT22;4404;49.308;12.178;2022-10-16T11:25:47;19.10;99.90
8736;DHT22;4404;49.308;12.178;2022-10-16T11:31:57;19.10;99.90
8736;DHT22;4404;49.308;12.178;2022-10-16T11:38:07;19.10;99.90
8736;DHT22;4404;49.308;12.178;2022-10-16T11:44:24;19.10;99.90
8736;DHT22;4404;49.308;12.178;2022-10-16T11:50:39;19.20;99.90
8736;DHT22;4404;49.308;12.178;2022-10-16T11:56:47;19.30;99.90
8736;DHT22;4404;49.308;12.178;2022-10-16T12:03:00;19.50;99.90
8736;DHT22;4404;49.308;12.178;2022-10-16T12:09:16;19.50;99.90
8736;DHT22;4404;49.308;12.178;2022-10-16T12:15:25;19.70;99.90
8736;DHT22;4404;49.308;12.178;2022-10-16T12:21:31;19.70;99.90
8736;DHT22;4404;49.308;12.178;2022-10-16T12:27:35;19.90;99.90
8736;DHT22;4404;49.308;12.178;2022-10-16T12:33:40;20.30;99.90
8736;DHT22;4404;49.308;12.178;2022-10-16T12:39:45;20.60;99.90
8736;DHT22;4404;49.308;12.178;2022-10-16T12:45:59;20.90;99.90
8736;DHT22;4404;49.308;12.178;2022-10-16T12:52:03;21.10;99.90
8736;DHT22;4404;49.308;12.178;2022-10-16T12:58:16;21.20;99.90
8736;DHT22;4404;49.308;12.178;2022-10-16T13:04:45;21.30;99.90
8736;DHT22;4404;49.308;12.178;2022-10-16T13:11:00;21.50;99.90
8736;DHT22;4404;49.308;12.178;2022-10-16T13:17:13;21.60;99.90
8736;DHT22;4404;49.308;12.178;2022-10-16T13:23:27;21.80;99.90
8736;DHT22;4404;49.308;12.178;2022-10-16T13:29:33;21.80;99.90
8736;DHT22;4404;49.308;12.178;2022-10-16T13:35:36;21.90;99.90
8736;DHT22;4404;49.308;12.178;2022-10-16T13:41:40;22.00;99.90
8736;DHT22;4404;49.308;12.178;2022-10-16T13:47:43;22.00;99.90
8736;DHT22;4404;49.308;12.178;2022-10-16T13:53:46;21.90;99.90
8736;DHT22;4404;49.308;12.178;2022-10-16T13:59:50;22.00;99.90
8736;DHT22;4404;49.308;12.178;2022-10-16T14:05:57;22.00;99.90
8736;DHT22;4404;49.308;12.178;2022-10-16T14:12:03;22.10;99.90
8736;DHT22;4404;49.308;12.178;2022-10-16T14:18:18;22.10;99.90
8736;DHT22;4404;49.308;12.178;2022-10-16T14:24:27;22.10;99.90
8736;DHT22;4404;49.308;12.178;2022-10-16T14:30:34;22.10;99.90
8736;DHT22;4404;49.308;12.178;2022-10-16T14:36:41;22.10;99.90
8736;DHT22;4404;49.308;12.178;2022-10-16T14:42:44;22.10;99.90
8736;DHT22;4404;49.308;12.178;2022-10-16T14:48:49;22.20;99.90
8736;DHT22;4404;49.308;12.178;2022-10-16T14:54:54;22.30;99.90
8736;DHT22;4404;49.308;12.178;2022-10-16T15:00:57;22.20;99.90
8736;DHT22;4404;49.308;12.178;2022-10-16T15:06:59;22.10;99.90
8736;DHT22;4404;49.308;12.178;2022-10-16T15:13:04;21.90;99.90
8736;DHT22;4404;49.308;12.178;2022-10-16T15:19:07;21.80;99.90
8736;DHT22;4404;49.308;12.178;2022-10-16T15:25:25;21.70;99.90
8736;DHT22;4404;49.308;12.178;2022-10-16T15:31:34;21.50;99.90
8736;DHT22;4404;49.308;12.178;2022-10-16T15:37:38;21.20;99.90
8736;DHT22;4404;49.308;12.178;2022-10-16T15:43:40;20.80;99.90
8736;DHT22;4404;49.308;12.178;2022-10-16T15:49:46;20.50;99.90
8736;DHT22;4404;49.308;12.178;2022-10-16T15:55:49;20.20;99.90
8736;DHT22;4404;49.308;12.178;2022-10-16T16:01:51;19.90;99.90
8736;DHT22;4404;49.308;12.178;2022-10-16T16:07:57;19.70;99.90
8736;DHT22;4404;49.308;12.178;2022-10-16T16:14:00;19.50;99.90
8736;DHT22;4404;49.308;12.178;2022-10-16T16:20:04;19.30;99.90
8736;DHT22;4404;49.308;12.178;2022-10-16T16:26:11;19.10;99.90
8736;DHT22;4404;49.308;12.178;2022-10-16T16:32:15;19.00;99.90
8736;DHT22;4404;49.308;12.178;2022-10-16T16:38:17;18.80;99.90
8736;DHT22;4404;49.308;12.178;2022-10-16T16:44:21;18.60;99.90
8736;DHT22;4404;49.308;12.178;2022-10-16T16:50:24;18.50;99.90
8736;DHT22;4404;49.308;12.178;2022-10-16T16:56:27;18.40;99.90
8736;DHT22;4404;49.308;12.178;2022-10-16T17:02:31;18.30;99.90
8736;DHT22;4404;49.308;12.178;2022-10-16T17:08:35;18.20;99.90
8736;DHT22;4404;49.308;12.178;2022-10-16T17:14:37;18.20;99.90
8736;DHT22;4404;49.308;12.178;2022-10-16T17:20:41;18.10;99.90
8736;DHT22;4404;49.308;12.178;2022-10-16T17:26:45;18.10;99.90
8736;DHT22;4404;49.308;12.178;2022-10-16T17:32:49;18.00;99.90
8736;DHT22;4404;49.308;12.178;2022-10-16T17:38:53;18.00;99.90
8736;DHT22;4404;49.308;12.178;2022-10-16T17:44:55;18.00;99.90
8736;DHT22;4404;49.308;12.178;2022-10-16T17:51:03;18.00;99.90
8736;DHT22;4404;49.308;12.178;2022-10-16T17:57:07;18.00;99.90
8736;DHT22;4404;49.308;12.178;2022-10-16T18:03:10;18.00;99.90
8736;DHT22;4404;49.308;12.178;2022-10-16T18:09:14;17.90;99.90
8736;DHT22;4404;49.308;12.178;2022-10-16T18:15:20;17.90;99.90
8736;DHT22;4404;49.308;12.178;2022-10-16T18:21:23;17.90;99.90
8736;DHT22;4404;49.308;12.178;2022-10-16T18:27:28;17.90;99.90
8736;DHT22;4404;49.308;12.178;2022-10-16T18:33:32;17.90;99.90
8736;DHT22;4404;49.308;12.178;2022-10-16T18:39:35;17.90;99.90
8736;DHT22;4404;49.308;12.178;2022-10-16T18:45:37;17.80;99.90
8736;DHT22;4404;49.308;12.178;2022-10-16T18:51:41;17.80;99.90
8736;DHT22;4404;49.308;12.178;2022-10-16T18:57:45;17.80;99.90
8736;DHT22;4404;49.308;12.178;2022-10-16T19:03:48;17.80;99.90
8736;DHT22;4404;49.308;12.178;2022-10-16T19:09:55;17.70;99.90
8736;DHT22;4404;49.308;12.178;2022-10-16T19:15:58;17.70;99.90
8736;DHT22;4404;49.308;12.178;2022-10-16T19:22:00;17.70;99.90
8736;DHT22;4404;49.308;12.178;2022-10-16T19:28:15;17.60;99.90
8736;DHT22;4404;49.308;12.178;2022-10-16T19:34:18;17.60;99.90
8736;DHT22;4404;49.308;12.178;2022-10-16T19:40:20;17.50;99.90
8736;DHT22;4404;49.308;12.178;2022-10-16T19:46:25;17.50;99.90
8736;DHT22;4404;49.308;12.178;2022-10-16T19:52:27;17.50;99.90
8736;DHT22;4404;49.308;12.178;2022-10-16T19:58:30;17.50;99.90
8736;DHT22;4404;49.308;12.178;2022-10-16T20:04:34;17.40;99.90
8736;DHT22;4404;49.308;12.178;2022-10-16T20:10:36;17.40;99.90
8736;DHT22;4404;49.308;12.178;2022-10-16T20:16:39;17.40;99.90
8736;DHT22;4404;49.308;12.178;2022-10-16T20:22:43;17.30;99.90
8736;DHT22;4404;49.308;12.178;2022-10-16T20:28:45;17.30;99.90
8736;DHT22;4404;49.308;12.178;2022-10-16T20:34:48;17.30;99.90
8736;DHT22;4404;49.308;12.178;2022-10-16T20:40:52;17.20;99.90
8736;DHT22;4404;49.308;12.178;2022-10-16T20:46:54;17.10;99.90
8736;DHT22;4404;49.308;12.178;2022-10-16T20:52:58;17.00;99.90
8736;DHT22;4404;49.308;12.178;2022-10-16T20:59:02;16.90;99.90
8736;DHT22;4404;49.308;12.178;2022-10-16T21:05:05;16.80;99.90
8736;DHT22;4404;49.308;12.178;2022-10-16T21:11:10;16.70;99.90
8736;DHT22;4404;49.308;12.178;2022-10-16T21:17:14;16.60;99.90
8736;DHT22;4404;49.308;12.178;2022-10-16T21:23:16;16.50;99.90
8736;DHT22;4404;49.308;12.178;2022-10-16T21:29:19;16.50;99.90
8736;DHT22;4404;49.308;12.178;2022-10-16T21:35:23;16.30;99.90
8736;DHT22;4404;49.308;12.178;2022-10-16T21:41:27;16.30;99.90
8736;DHT22;4404;49.308;12.178;2022-10-16T21:47:30;16.20;99.90
8736;DHT22;4404;49.308;12.178;2022-10-16T21:53:35;16.10;99.90
8736;DHT22;4404;49.308;12.178;2022-10-16T21:59:37;16.10;99.90
8736;DHT22;4404;49.308;12.178;2022-10-16T22:05:40;16.00;99.90
8736;DHT22;4404;49.308;12.178;2022-10-16T22:11:44;16.00;99.90
8736;DHT22;4404;49.308;12.178;2022-10-16T22:17:46;16.00;99.90
8736;DHT22;4404;49.308;12.178;2022-10-16T22:23:49;15.90;99.90
8736;DHT22;4404;49.308;12.178;2022-10-16T22:29:53;15.90;99.90
8736;DHT22;4404;49.308;12.178;2022-10-16T22:35:55;15.80;99.90
8736;DHT22;4404;49.308;12.178;2022-10-16T22:42:01;15.80;99.90
8736;DHT22;4404;49.308;12.178;2022-10-16T22:48:05;15.70;99.90
8736;DHT22;4404;49.308;12.178;2022-10-16T22:54:08;15.70;99.90
8736;DHT22;4404;49.308;12.178;2022-10-16T23:00:13;15.70;99.90
8736;DHT22;4404;49.308;12.178;2022-10-16T23:06:18;15.60;99.90
8736;DHT22;4404;49.308;12.178;2022-10-16T23:12:21;15.50;99.90
8736;DHT22;4404;49.308;12.178;2022-10-16T23:18:25;15.50;99.90
8736;DHT22;4404;49.308;12.178;2022-10-16T23:24:31;15.50;99.90
8736;DHT22;4404;49.308;12.178;2022-10-16T23:30:33;15.40;99.90
8736;DHT22;4404;49.308;12.178;2022-10-16T23:36:36;15.40;99.90
8736;DHT22;4404;49.308;12.178;2022-10-16T23:42:40;15.40;99.90
8736;DHT22;4404;49.308;12.178;2022-10-16T23:48:46;15.40;99.90
8736;DHT22;4404;49.308;12.178;2022-10-16T23:54:55;15.30;99.90
